sensor_id;sensor_type;location;lat;lon;timestamp;pressure;altitude;pressure_sealevel;temperature;humidity
29733;BME280;16643;43.158;25.302;2022-07-23T00:02:02;98019.53;;;24.64;44.33
29733;BME280;16643;43.158;25.302;2022-07-23T00:04:27;98023.88;;;24.55;44.98
29733;BME280;16643;43.158;25.302;2022-07-23T00:06:53;98034.94;;;24.60;45.31
29733;BME280;16643;43.158;25.302;2022-07-23T00:09:18;98013.94;;;24.57;44.91
29733;BME280;16643;43.158;25.302;2022-07-23T00:11:44;98020.75;;;24.40;44.59
29733;BME280;16643;43.158;25.302;2022-07-23T00:14:10;98030.41;;;24.51;45.31
29733;BME280;16643;43.158;25.302;2022-07-23T00:16:35;98049.47;;;24.56;45.12
29733;BME280;16643;43.158;25.302;2022-07-23T00:19:01;98056.06;;;24.61;45.01
29733;BME280;16643;43.158;25.302;2022-07-23T00:21:27;98022.59;;;24.49;45.30
29733;BME280;16643;43.158;25.302;2022-07-23T00:23:53;98018.75;;;24.33;44.95
29733;BME280;16643;43.158;25.302;2022-07-23T00:26:19;98022.88;;;24.46;45.62
29733;BME280;16643;43.158;25.302;2022-07-23T00:28:44;98020.34;;;24.45;45.57
29733;BME280;16643;43.158;25.302;2022-07-23T00:31:10;98024.25;;;24.41;45.64
29733;BME280;16643;43.158;25.302;2022-07-23T00:33:36;98036.19;;;24.56;45.33
29733;BME280;16643;43.158;25.302;2022-07-23T00:36:02;98022.75;;;24.48;45.56
29733;BME280;16643;43.158;25.302;2022-07-23T00:38:28;98020.47;;;24.43;45.48
29733;BME280;16643;43.158;25.302;2022-07-23T00:40:53;98025.41;;;24.48;45.85
29733;BME280;16643;43.158;25.302;2022-07-23T00:43:23;98029.03;;;24.47;45.45
29733;BME280;16643;43.158;25.302;2022-07-23T00:45:49;98011.78;;;24.41;45.15
29733;BME280;16643;43.158;25.302;2022-07-23T00:48:15;98044.75;;;24.59;45.11
29733;BME280;16643;43.158;25.302;2022-07-23T00:50:40;98028.06;;;24.48;46.08
29733;BME280;16643;43.158;25.302;2022-07-23T00:53:06;98024.53;;;24.38;46.62
29733;BME280;16643;43.158;25.302;2022-07-23T00:55:34;98028.56;;;24.42;46.36
29733;BME280;16643;43.158;25.302;2022-07-23T00:58:01;98025.44;;;24.27;46.54
29733;BME280;16643;43.158;25.302;2022-07-23T01:00:27;98016.91;;;24.23;46.43
29733;BME280;16643;43.158;25.302;2022-07-23T01:02:53;98020.41;;;24.24;46.36
29733;BME280;16643;43.158;25.302;2022-07-23T01:05:19;98030.06;;;24.25;46.20
29733;BME280;16643;43.158;25.302;2022-07-23T01:07:49;98008.38;;;24.30;46.08
29733;BME280;16643;43.158;25.302;2022-07-23T01:10:15;98031.97;;;24.53;45.79
29733;BME280;16643;43.158;25.302;2022-07-23T01:13:08;98015.00;;;24.35;45.97
29733;BME280;16643;43.158;25.302;2022-07-23T01:15:36;98022.97;;;24.35;46.46
29733;BME280;16643;43.158;25.302;2022-07-23T01:18:04;97996.06;;;24.29;46.01
29733;BME280;16643;43.158;25.302;2022-07-23T01:20:30;98025.66;;;24.45;46.36
29733;BME280;16643;43.158;25.302;2022-07-23T01:22:55;97996.38;;;24.26;46.11
29733;BME280;16643;43.158;25.302;2022-07-23T01:25:22;97999.38;;;24.21;45.70
29733;BME280;16643;43.158;25.302;2022-07-23T01:27:48;98022.78;;;24.27;45.29
29733;BME280;16643;43.158;25.302;2022-07-23T01:30:13;97957.94;;;24.09;45.67
29733;BME280;16643;43.158;25.302;2022-07-23T01:32:40;98023.25;;;24.42;45.27
29733;BME280;16643;43.158;25.302;2022-07-23T01:35:06;98006.06;;;24.15;45.94
29733;BME280;16643;43.158;25.302;2022-07-23T01:37:32;98022.25;;;24.33;46.17
29733;BME280;16643;43.158;25.302;2022-07-23T01:39:58;98003.97;;;24.19;46.45
29733;BME280;16643;43.158;25.302;2022-07-23T01:42:24;97996.38;;;24.05;46.51
29733;BME280;16643;43.158;25.302;2022-07-23T01:44:50;98007.00;;;24.26;45.58
29733;BME280;16643;43.158;25.302;2022-07-23T01:47:16;98025.53;;;24.46;45.27
29733;BME280;16643;43.158;25.302;2022-07-23T01:49:42;98022.91;;;24.66;44.36
29733;BME280;16643;43.158;25.302;2022-07-23T01:52:07;97997.41;;;24.53;44.92
29733;BME280;16643;43.158;25.302;2022-07-23T01:54:37;98016.19;;;24.61;45.34
29733;BME280;16643;43.158;25.302;2022-07-23T01:57:05;98015.88;;;24.55;45.55
29733;BME280;16643;43.158;25.302;2022-07-23T01:59:30;97992.31;;;24.31;45.20
29733;BME280;16643;43.158;25.302;2022-07-23T02:01:56;97999.03;;;24.26;45.53
29733;BME280;16643;43.158;25.302;2022-07-23T02:04:23;98018.06;;;24.40;45.86
29733;BME280;16643;43.158;25.302;2022-07-23T02:06:50;98009.69;;;24.35;45.75
29733;BME280;16643;43.158;25.302;2022-07-23T02:09:15;98004.75;;;24.31;45.70
29733;BME280;16643;43.158;25.302;2022-07-23T02:11:41;98012.72;;;24.31;45.95
29733;BME280;16643;43.158;25.302;2022-07-23T02:14:07;97988.09;;;23.98;46.38
29733;BME280;16643;43.158;25.302;2022-07-23T02:16:33;97995.34;;;23.96;46.85
29733;BME280;16643;43.158;25.302;2022-07-23T02:18:58;98022.81;;;24.06;46.80
29733;BME280;16643;43.158;25.302;2022-07-23T02:21:24;98000.41;;;23.99;47.06
29733;BME280;16643;43.158;25.302;2022-07-23T02:23:50;97977.66;;;23.76;46.74
29733;BME280;16643;43.158;25.302;2022-07-23T02:26:15;98002.59;;;23.94;47.09
29733;BME280;16643;43.158;25.302;2022-07-23T02:28:41;97986.59;;;23.75;47.40
29733;BME280;16643;43.158;25.302;2022-07-23T02:31:07;98004.38;;;23.84;47.33
29733;BME280;16643;43.158;25.302;2022-07-23T02:33:33;98005.00;;;23.67;47.42
29733;BME280;16643;43.158;25.302;2022-07-23T02:35:59;98006.34;;;23.61;47.61
29733;BME280;16643;43.158;25.302;2022-07-23T02:38:24;98016.03;;;23.72;47.51
29733;BME280;16643;43.158;25.302;2022-07-23T02:40:50;98032.69;;;23.74;47.55
29733;BME280;16643;43.158;25.302;2022-07-23T02:43:16;98018.81;;;23.49;48.29
29733;BME280;16643;43.158;25.302;2022-07-23T02:45:41;98011.47;;;23.53;47.10
29733;BME280;16643;43.158;25.302;2022-07-23T02:48:07;98040.16;;;23.80;47.64
29733;BME280;16643;43.158;25.302;2022-07-23T02:50:33;98013.25;;;23.73;47.12
29733;BME280;16643;43.158;25.302;2022-07-23T02:52:58;98023.03;;;23.73;46.94
29733;BME280;16643;43.158;25.302;2022-07-23T02:55:24;98041.00;;;23.80;47.97
29733;BME280;16643;43.158;25.302;2022-07-23T02:57:50;98015.59;;;23.46;48.25
29733;BME280;16643;43.158;25.302;2022-07-23T03:00:16;98051.41;;;23.72;48.25
29733;BME280;16643;43.158;25.302;2022-07-23T03:02:41;98043.06;;;23.77;48.01
29733;BME280;16643;43.158;25.302;2022-07-23T03:05:08;98045.47;;;23.80;48.03
29733;BME280;16643;43.158;25.302;2022-07-23T03:07:34;98041.13;;;23.79;48.05
29733;BME280;16643;43.158;25.302;2022-07-23T03:09:59;98061.84;;;23.85;48.10
29733;BME280;16643;43.158;25.302;2022-07-23T03:12:25;98049.94;;;23.79;48.38
29733;BME280;16643;43.158;25.302;2022-07-23T03:14:50;98039.09;;;23.71;47.88
29733;BME280;16643;43.158;25.302;2022-07-23T03:17:16;98048.13;;;23.80;47.16
29733;BME280;16643;43.158;25.302;2022-07-23T03:19:42;98071.81;;;23.93;47.88
29733;BME280;16643;43.158;25.302;2022-07-23T03:22:08;98073.72;;;23.81;47.69
29733;BME280;16643;43.158;25.302;2022-07-23T03:24:34;98061.66;;;23.77;48.17
29733;BME280;16643;43.158;25.302;2022-07-23T03:27:17;98073.72;;;23.81;48.77
29733;BME280;16643;43.158;25.302;2022-07-23T03:29:43;98079.72;;;23.83;48.65
29733;BME280;16643;43.158;25.302;2022-07-23T03:32:09;98091.38;;;23.92;48.54
29733;BME280;16643;43.158;25.302;2022-07-23T03:34:35;98082.81;;;23.88;49.20
29733;BME280;16643;43.158;25.302;2022-07-23T03:37:01;98070.72;;;23.74;49.32
29733;BME280;16643;43.158;25.302;2022-07-23T03:39:26;98026.31;;;23.44;49.32
29733;BME280;16643;43.158;25.302;2022-07-23T03:41:52;98070.69;;;23.53;50.03
29733;BME280;16643;43.158;25.302;2022-07-23T03:44:18;98083.44;;;23.60;49.43
29733;BME280;16643;43.158;25.302;2022-07-23T03:46:43;98071.81;;;23.40;49.56
29733;BME280;16643;43.158;25.302;2022-07-23T03:49:09;98078.50;;;23.34;49.50
29733;BME280;16643;43.158;25.302;2022-07-23T03:51:35;98082.19;;;23.43;51.97
29733;BME280;16643;43.158;25.302;2022-07-23T03:54:00;98090.47;;;23.49;52.37
29733;BME280;16643;43.158;25.302;2022-07-23T03:56:26;98110.09;;;23.69;52.43
29733;BME280;16643;43.158;25.302;2022-07-23T03:58:52;98103.41;;;23.75;52.34
29733;BME280;16643;43.158;25.302;2022-07-23T04:01:17;98093.03;;;23.72;52.01
29733;BME280;16643;43.158;25.302;2022-07-23T04:03:43;98097.84;;;23.78;51.79
29733;BME280;16643;43.158;25.302;2022-07-23T04:06:09;98104.31;;;23.85;51.45
29733;BME280;16643;43.158;25.302;2022-07-23T04:08:35;98091.47;;;23.80;50.79
29733;BME280;16643;43.158;25.302;2022-07-23T04:11:00;98084.47;;;23.79;50.92
29733;BME280;16643;43.158;25.302;2022-07-23T04:13:26;98104.13;;;23.98;51.55
29733;BME280;16643;43.158;25.302;2022-07-23T04:15:51;98100.13;;;24.03;51.33
29733;BME280;16643;43.158;25.302;2022-07-23T04:18:17;98094.81;;;24.03;50.71
29733;BME280;16643;43.158;25.302;2022-07-23T04:20:46;98093.19;;;24.12;49.09
29733;BME280;16643;43.158;25.302;2022-07-23T04:23:11;98088.72;;;24.12;48.82
29733;BME280;16643;43.158;25.302;2022-07-23T04:25:38;98112.50;;;24.35;49.09
29733;BME280;16643;43.158;25.302;2022-07-23T04:28:04;98095.03;;;24.21;49.12
29733;BME280;16643;43.158;25.302;2022-07-23T04:30:29;98061.03;;;23.94;49.23
29733;BME280;16643;43.158;25.302;2022-07-23T04:32:55;98093.72;;;24.27;49.41
29733;BME280;16643;43.158;25.302;2022-07-23T04:35:20;98074.69;;;24.31;49.21
29733;BME280;16643;43.158;25.302;2022-07-23T04:37:46;98077.72;;;24.47;48.41
29733;BME280;16643;43.158;25.302;2022-07-23T04:40:12;98092.63;;;24.69;49.22
29733;BME280;16643;43.158;25.302;2022-07-23T04:42:38;98106.75;;;25.00;49.66
29733;BME280;16643;43.158;25.302;2022-07-23T04:45:05;98104.44;;;25.26;49.50
29733;BME280;16643;43.158;25.302;2022-07-23T04:47:31;98083.25;;;25.34;48.84
29733;BME280;16643;43.158;25.302;2022-07-23T04:49:57;98084.53;;;25.59;46.61
29733;BME280;16643;43.158;25.302;2022-07-23T04:52:23;98103.16;;;25.97;47.16
29733;BME280;16643;43.158;25.302;2022-07-23T04:54:49;98102.56;;;26.13;47.13
29733;BME280;16643;43.158;25.302;2022-07-23T04:57:15;98095.06;;;26.46;47.79
29733;BME280;16643;43.158;25.302;2022-07-23T04:59:40;98104.25;;;26.70;46.99
29733;BME280;16643;43.158;25.302;2022-07-23T05:02:06;98105.69;;;26.92;47.63
29733;BME280;16643;43.158;25.302;2022-07-23T05:04:32;98074.38;;;26.94;46.91
29733;BME280;16643;43.158;25.302;2022-07-23T05:06:58;98077.38;;;27.27;45.17
29733;BME280;16643;43.158;25.302;2022-07-23T05:09:23;98108.63;;;27.62;42.72
29733;BME280;16643;43.158;25.302;2022-07-23T05:11:49;98049.91;;;27.34;43.60
29733;BME280;16643;43.158;25.302;2022-07-23T05:14:15;98109.69;;;27.87;44.14
29733;BME280;16643;43.158;25.302;2022-07-23T05:16:40;98054.34;;;27.61;45.53
29733;BME280;16643;43.158;25.302;2022-07-23T05:19:06;98057.56;;;27.65;44.33
29733;BME280;16643;43.158;25.302;2022-07-23T05:21:32;98123.00;;;28.22;43.34
29733;BME280;16643;43.158;25.302;2022-07-23T05:23:58;98103.00;;;28.34;43.42
29733;BME280;16643;43.158;25.302;2022-07-23T05:26:23;98098.94;;;28.56;43.95
29733;BME280;16643;43.158;25.302;2022-07-23T05:28:50;98105.22;;;28.73;43.38
29733;BME280;16643;43.158;25.302;2022-07-23T05:31:16;98123.28;;;28.97;43.41
29733;BME280;16643;43.158;25.302;2022-07-23T05:33:41;98106.22;;;29.06;43.65
29733;BME280;16643;43.158;25.302;2022-07-23T05:36:07;98099.03;;;29.06;43.37
29733;BME280;16643;43.158;25.302;2022-07-23T05:38:33;98092.69;;;29.15;42.47
29733;BME280;16643;43.158;25.302;2022-07-23T05:40:59;98092.22;;;29.36;42.87
29733;BME280;16643;43.158;25.302;2022-07-23T05:43:25;98093.28;;;29.51;40.22
29733;BME280;16643;43.158;25.302;2022-07-23T05:45:50;98121.78;;;29.69;40.53
29733;BME280;16643;43.158;25.302;2022-07-23T05:48:16;98111.22;;;29.91;40.62
29733;BME280;16643;43.158;25.302;2022-07-23T05:50:42;98117.63;;;30.15;39.54
29733;BME280;16643;43.158;25.302;2022-07-23T05:53:08;98127.13;;;30.42;39.52
29733;BME280;16643;43.158;25.302;2022-07-23T05:55:33;98113.03;;;30.48;39.48
29733;BME280;16643;43.158;25.302;2022-07-23T05:57:59;98097.06;;;30.62;38.82
29733;BME280;16643;43.158;25.302;2022-07-23T06:00:25;98094.34;;;30.71;37.15
29733;BME280;16643;43.158;25.302;2022-07-23T06:02:51;98136.03;;;31.14;36.89
29733;BME280;16643;43.158;25.302;2022-07-23T06:05:17;98124.88;;;31.25;36.91
29733;BME280;16643;43.158;25.302;2022-07-23T06:07:43;98133.44;;;31.51;35.87
29733;BME280;16643;43.158;25.302;2022-07-23T06:10:09;98122.81;;;31.58;37.65
29733;BME280;16643;43.158;25.302;2022-07-23T06:12:35;98117.47;;;31.81;35.87
29733;BME280;16643;43.158;25.302;2022-07-23T06:15:01;98123.91;;;31.94;34.90
29733;BME280;16643;43.158;25.302;2022-07-23T06:17:27;98135.81;;;32.23;34.90
29733;BME280;16643;43.158;25.302;2022-07-23T06:19:53;98119.88;;;32.36;33.94
29733;BME280;16643;43.158;25.302;2022-07-23T06:22:19;98135.00;;;32.37;33.43
29733;BME280;16643;43.158;25.302;2022-07-23T06:24:45;98128.78;;;32.51;33.96
29733;BME280;16643;43.158;25.302;2022-07-23T06:27:10;98138.28;;;32.76;33.54
29733;BME280;16643;43.158;25.302;2022-07-23T06:29:36;98140.53;;;32.88;34.22
29733;BME280;16643;43.158;25.302;2022-07-23T06:32:02;98143.22;;;33.02;29.97
29733;BME280;16643;43.158;25.302;2022-07-23T06:34:28;98121.59;;;32.96;32.32
29733;BME280;16643;43.158;25.302;2022-07-23T06:36:53;98126.28;;;33.08;32.77
29733;BME280;16643;43.158;25.302;2022-07-23T06:39:19;98131.28;;;33.41;32.90
29733;BME280;16643;43.158;25.302;2022-07-23T06:41:45;98132.88;;;33.57;30.44
29733;BME280;16643;43.158;25.302;2022-07-23T06:44:10;98139.38;;;33.41;30.43
29733;BME280;16643;43.158;25.302;2022-07-23T06:46:36;98114.53;;;33.31;32.48
29733;BME280;16643;43.158;25.302;2022-07-23T06:49:02;98143.06;;;33.76;31.94
29733;BME280;16643;43.158;25.302;2022-07-23T06:51:29;98111.91;;;33.73;30.33
29733;BME280;16643;43.158;25.302;2022-07-23T06:53:55;98142.44;;;33.95;31.04
29733;BME280;16643;43.158;25.302;2022-07-23T06:56:21;98118.53;;;33.92;30.51
29733;BME280;16643;43.158;25.302;2022-07-23T06:58:46;98127.44;;;34.14;30.60
29733;BME280;16643;43.158;25.302;2022-07-23T07:01:12;98112.34;;;34.19;31.41
29733;BME280;16643;43.158;25.302;2022-07-23T07:03:38;98124.16;;;34.40;30.40
29733;BME280;16643;43.158;25.302;2022-07-23T07:06:03;98136.38;;;34.64;30.33
29733;BME280;16643;43.158;25.302;2022-07-23T07:08:29;98145.91;;;34.66;29.99
29733;BME280;16643;43.158;25.302;2022-07-23T07:10:55;98146.16;;;34.65;28.19
29733;BME280;16643;43.158;25.302;2022-07-23T07:13:20;98129.84;;;34.51;30.13
29733;BME280;16643;43.158;25.302;2022-07-23T07:15:46;98134.13;;;34.74;30.72
29733;BME280;16643;43.158;25.302;2022-07-23T07:18:12;98119.53;;;34.68;30.38
29733;BME280;16643;43.158;25.302;2022-07-23T07:20:37;98127.75;;;34.81;30.59
29733;BME280;16643;43.158;25.302;2022-07-23T07:23:03;98144.03;;;34.94;30.54
29733;BME280;16643;43.158;25.302;2022-07-23T07:25:28;98143.50;;;35.12;29.91
29733;BME280;16643;43.158;25.302;2022-07-23T07:27:54;98146.00;;;35.14;30.32
29733;BME280;16643;43.158;25.302;2022-07-23T07:30:20;98120.34;;;34.97;31.14
29733;BME280;16643;43.158;25.302;2022-07-23T07:32:45;98141.66;;;35.19;30.20
29733;BME280;16643;43.158;25.302;2022-07-23T07:35:11;98113.81;;;35.25;29.43
29733;BME280;16643;43.158;25.302;2022-07-23T07:37:37;98141.13;;;35.30;28.81
29733;BME280;16643;43.158;25.302;2022-07-23T07:40:03;98140.69;;;35.34;29.86
29733;BME280;16643;43.158;25.302;2022-07-23T07:42:29;98132.84;;;35.52;29.46
29733;BME280;16643;43.158;25.302;2022-07-23T07:44:55;98124.53;;;35.60;29.22
29733;BME280;16643;43.158;25.302;2022-07-23T07:47:20;98135.63;;;35.78;28.09
29733;BME280;16643;43.158;25.302;2022-07-23T07:49:46;98129.16;;;35.73;29.32
29733;BME280;16643;43.158;25.302;2022-07-23T07:52:11;98135.59;;;35.72;28.06
29733;BME280;16643;43.158;25.302;2022-07-23T07:54:37;98143.53;;;35.73;29.26
29733;BME280;16643;43.158;25.302;2022-07-23T07:57:03;98128.38;;;35.85;29.49
29733;BME280;16643;43.158;25.302;2022-07-23T07:59:29;98115.44;;;35.94;27.74
29733;BME280;16643;43.158;25.302;2022-07-23T08:01:54;98138.59;;;36.16;26.06
29733;BME280;16643;43.158;25.302;2022-07-23T08:04:20;98116.69;;;35.85;26.81
29733;BME280;16643;43.158;25.302;2022-07-23T08:06:46;98109.63;;;36.03;30.66
29733;BME280;16643;43.158;25.302;2022-07-23T08:09:12;98127.13;;;36.14;28.05
29733;BME280;16643;43.158;25.302;2022-07-23T08:11:37;98114.19;;;36.03;26.94
29733;BME280;16643;43.158;25.302;2022-07-23T08:14:03;98133.38;;;35.95;26.53
29733;BME280;16643;43.158;25.302;2022-07-23T08:16:29;98129.44;;;36.11;28.05
29733;BME280;16643;43.158;25.302;2022-07-23T08:18:54;98119.44;;;36.11;28.48
29733;BME280;16643;43.158;25.302;2022-07-23T08:21:20;98109.25;;;36.33;27.49
29733;BME280;16643;43.158;25.302;2022-07-23T08:23:46;98114.81;;;36.78;27.65
29733;BME280;16643;43.158;25.302;2022-07-23T08:26:11;98108.09;;;36.80;26.35
29733;BME280;16643;43.158;25.302;2022-07-23T08:28:37;98118.69;;;37.01;26.11
29733;BME280;16643;43.158;25.302;2022-07-23T08:31:03;98123.41;;;37.26;27.51
29733;BME280;16643;43.158;25.302;2022-07-23T08:33:30;98119.63;;;37.33;26.14
29733;BME280;16643;43.158;25.302;2022-07-23T08:35:56;98122.44;;;37.00;26.00
29733;BME280;16643;43.158;25.302;2022-07-23T08:38:22;98125.09;;;37.14;26.60
29733;BME280;16643;43.158;25.302;2022-07-23T08:40:52;98104.38;;;36.75;25.40
29733;BME280;16643;43.158;25.302;2022-07-23T08:43:27;98129.81;;;36.73;25.99
29733;BME280;16643;43.158;25.302;2022-07-23T08:45:55;98114.44;;;36.41;25.78
29733;BME280;16643;43.158;25.302;2022-07-23T08:48:24;98094.19;;;36.57;27.26
29733;BME280;16643;43.158;25.302;2022-07-23T08:50:54;98131.69;;;36.66;25.88
29733;BME280;16643;43.158;25.302;2022-07-23T08:53:22;98126.28;;;36.66;26.31
29733;BME280;16643;43.158;25.302;2022-07-23T08:55:50;98101.66;;;36.68;28.55
29733;BME280;16643;43.158;25.302;2022-07-23T08:58:17;98127.31;;;36.79;27.35
29733;BME280;16643;43.158;25.302;2022-07-23T09:00:43;98098.53;;;36.58;25.21
29733;BME280;16643;43.158;25.302;2022-07-23T09:03:31;98109.81;;;36.55;25.82
29733;BME280;16643;43.158;25.302;2022-07-23T09:09:20;98132.69;;;36.98;25.12
29733;BME280;16643;43.158;25.302;2022-07-23T09:11:47;98089.25;;;37.05;24.87
29733;BME280;16643;43.158;25.302;2022-07-23T09:14:13;98114.03;;;37.22;24.34
29733;BME280;16643;43.158;25.302;2022-07-23T09:16:39;98130.78;;;36.99;23.42
29733;BME280;16643;43.158;25.302;2022-07-23T09:19:06;98110.31;;;37.03;24.65
29733;BME280;16643;43.158;25.302;2022-07-23T09:21:39;98132.25;;;37.53;25.11
29733;BME280;16643;43.158;25.302;2022-07-23T09:24:12;98133.13;;;37.85;22.97
29733;BME280;16643;43.158;25.302;2022-07-23T09:26:45;98111.75;;;37.63;22.92
29733;BME280;16643;43.158;25.302;2022-07-23T09:29:23;98133.50;;;37.88;23.58
29733;BME280;16643;43.158;25.302;2022-07-23T09:36:52;98112.78;;;37.94;22.10
29733;BME280;16643;43.158;25.302;2022-07-23T09:39:32;98126.09;;;38.02;23.02
29733;BME280;16643;43.158;25.302;2022-07-23T09:45:03;98111.84;;;38.06;22.41
29733;BME280;16643;43.158;25.302;2022-07-23T09:47:31;98090.75;;;38.08;23.12
29733;BME280;16643;43.158;25.302;2022-07-23T09:52:42;98123.84;;;38.48;22.27
29733;BME280;16643;43.158;25.302;2022-07-23T09:55:10;98087.47;;;38.25;22.03
29733;BME280;16643;43.158;25.302;2022-07-23T09:57:36;98105.16;;;38.52;21.89
29733;BME280;16643;43.158;25.302;2022-07-23T10:00:06;98104.41;;;39.06;22.50
29733;BME280;16643;43.158;25.302;2022-07-23T10:02:34;98089.44;;;38.97;21.39
29733;BME280;16643;43.158;25.302;2022-07-23T10:05:01;98095.88;;;39.03;21.25
29733;BME280;16643;43.158;25.302;2022-07-23T10:07:27;98067.81;;;38.84;22.17
29733;BME280;16643;43.158;25.302;2022-07-23T10:09:56;98098.13;;;39.06;21.62
29733;BME280;16643;43.158;25.302;2022-07-23T10:12:24;98062.91;;;38.56;21.56
29733;BME280;16643;43.158;25.302;2022-07-23T10:14:59;98106.50;;;38.68;21.29
29733;BME280;16643;43.158;25.302;2022-07-23T10:17:27;98088.75;;;38.65;20.93
29733;BME280;16643;43.158;25.302;2022-07-23T10:19:53;98110.28;;;38.85;20.87
29733;BME280;16643;43.158;25.302;2022-07-23T10:22:23;98081.50;;;38.59;21.11
29733;BME280;16643;43.158;25.302;2022-07-23T10:30:07;98068.81;;;38.71;20.58
29733;BME280;16643;43.158;25.302;2022-07-23T10:32:56;98073.13;;;39.15;19.72
29733;BME280;16643;43.158;25.302;2022-07-23T10:38:22;98093.28;;;39.26;18.22
29733;BME280;16643;43.158;25.302;2022-07-23T10:41:01;98079.50;;;39.21;18.96
29733;BME280;16643;43.158;25.302;2022-07-23T10:43:28;98070.56;;;39.50;18.92
29733;BME280;16643;43.158;25.302;2022-07-23T10:45:54;98059.41;;;39.52;18.64
29733;BME280;16643;43.158;25.302;2022-07-23T10:48:24;98075.09;;;39.38;18.23
29733;BME280;16643;43.158;25.302;2022-07-23T10:59:06;98038.59;;;39.28;18.80
29733;BME280;16643;43.158;25.302;2022-07-23T11:01:36;98050.97;;;39.42;18.88
29733;BME280;16643;43.158;25.302;2022-07-23T11:04:03;98041.28;;;39.16;18.92
29733;BME280;16643;43.158;25.302;2022-07-23T11:09:40;98049.38;;;39.76;19.60
29733;BME280;16643;43.158;25.302;2022-07-23T11:25:13;98037.31;;;39.60;19.34
29733;BME280;16643;43.158;25.302;2022-07-23T11:27:44;98032.06;;;39.47;19.40
29733;BME280;16643;43.158;25.302;2022-07-23T11:32:53;98029.78;;;39.14;20.00
29733;BME280;16643;43.158;25.302;2022-07-23T11:35:24;98011.69;;;39.19;19.54
29733;BME280;16643;43.158;25.302;2022-07-23T11:37:52;98023.59;;;39.07;18.86
29733;BME280;16643;43.158;25.302;2022-07-23T11:40:25;98000.16;;;38.58;19.71
29733;BME280;16643;43.158;25.302;2022-07-23T11:42:58;98033.41;;;39.08;20.38
29733;BME280;16643;43.158;25.302;2022-07-23T11:45:31;97998.09;;;38.71;20.31
29733;BME280;16643;43.158;25.302;2022-07-23T11:47:58;97961.81;;;38.77;19.96
29733;BME280;16643;43.158;25.302;2022-07-23T11:50:24;98022.38;;;39.33;19.14
29733;BME280;16643;43.158;25.302;2022-07-23T11:52:53;97986.00;;;39.15;19.29
29733;BME280;16643;43.158;25.302;2022-07-23T11:55:19;97979.03;;;39.19;19.49
29733;BME280;16643;43.158;25.302;2022-07-23T11:57:45;98015.44;;;39.37;19.02
29733;BME280;16643;43.158;25.302;2022-07-23T12:00:20;98022.88;;;39.71;18.56
29733;BME280;16643;43.158;25.302;2022-07-23T12:02:48;98010.91;;;39.84;17.77
29733;BME280;16643;43.158;25.302;2022-07-23T12:05:24;97998.34;;;39.83;18.11
29733;BME280;16643;43.158;25.302;2022-07-23T12:07:55;97987.25;;;39.84;18.65
29733;BME280;16643;43.158;25.302;2022-07-23T12:10:26;98019.69;;;40.09;18.61
29733;BME280;16643;43.158;25.302;2022-07-23T12:12:55;98024.81;;;39.94;17.94
29733;BME280;16643;43.158;25.302;2022-07-23T12:15:30;98004.22;;;39.45;17.62
29733;BME280;16643;43.158;25.302;2022-07-23T12:17:59;98014.53;;;39.54;18.64
29733;BME280;16643;43.158;25.302;2022-07-23T12:20:29;98015.06;;;39.33;18.25
29733;BME280;16643;43.158;25.302;2022-07-23T12:22:57;98001.56;;;39.27;17.32
29733;BME280;16643;43.158;25.302;2022-07-23T12:25:26;98001.97;;;39.42;18.52
29733;BME280;16643;43.158;25.302;2022-07-23T12:28:22;98004.72;;;39.65;17.89
29733;BME280;16643;43.158;25.302;2022-07-23T12:30:53;97991.22;;;39.47;18.60
29733;BME280;16643;43.158;25.302;2022-07-23T12:33:24;97971.09;;;39.60;17.95
29733;BME280;16643;43.158;25.302;2022-07-23T12:35:55;97993.94;;;39.29;17.78
29733;BME280;16643;43.158;25.302;2022-07-23T12:38:24;97998.91;;;39.20;18.17
29733;BME280;16643;43.158;25.302;2022-07-23T12:40:52;97986.09;;;39.09;17.93
29733;BME280;16643;43.158;25.302;2022-07-23T12:43:29;97988.88;;;39.32;17.80
29733;BME280;16643;43.158;25.302;2022-07-23T12:45:56;97988.19;;;39.37;17.81
29733;BME280;16643;43.158;25.302;2022-07-23T12:48:30;97940.31;;;39.17;17.95
29733;BME280;16643;43.158;25.302;2022-07-23T12:56:06;97984.72;;;39.60;17.46
29733;BME280;16643;43.158;25.302;2022-07-23T12:58:54;97982.44;;;39.56;17.48
29733;BME280;16643;43.158;25.302;2022-07-23T13:04:02;97968.03;;;39.68;17.24
29733;BME280;16643;43.158;25.302;2022-07-23T13:06:32;97949.25;;;39.36;17.72
29733;BME280;16643;43.158;25.302;2022-07-23T13:08:58;97977.81;;;39.45;17.10
29733;BME280;16643;43.158;25.302;2022-07-23T13:11:24;97954.22;;;39.39;17.97
29733;BME280;16643;43.158;25.302;2022-07-23T13:13:50;97951.28;;;39.41;18.21
29733;BME280;16643;43.158;25.302;2022-07-23T13:16:18;97953.41;;;39.39;17.93
29733;BME280;16643;43.158;25.302;2022-07-23T13:18:44;97963.44;;;39.27;18.37
29733;BME280;16643;43.158;25.302;2022-07-23T13:21:11;97971.16;;;39.41;18.27
29733;BME280;16643;43.158;25.302;2022-07-23T13:23:39;97911.34;;;39.23;18.14
29733;BME280;16643;43.158;25.302;2022-07-23T13:26:05;97946.03;;;39.28;18.13
29733;BME280;16643;43.158;25.302;2022-07-23T13:28:31;97947.03;;;39.03;18.63
29733;BME280;16643;43.158;25.302;2022-07-23T13:30:57;97954.63;;;39.13;18.19
29733;BME280;16643;43.158;25.302;2022-07-23T13:33:24;97964.09;;;39.10;18.26
29733;BME280;16643;43.158;25.302;2022-07-23T13:35:50;97961.72;;;39.02;18.91
29733;BME280;16643;43.158;25.302;2022-07-23T13:38:18;97942.72;;;39.26;18.69
29733;BME280;16643;43.158;25.302;2022-07-23T13:40:46;97938.50;;;39.53;18.63
29733;BME280;16643;43.158;25.302;2022-07-23T13:43:15;97940.41;;;39.52;17.28
29733;BME280;16643;43.158;25.302;2022-07-23T13:45:41;97959.69;;;38.79;17.70
29733;BME280;16643;43.158;25.302;2022-07-23T13:48:12;97937.81;;;38.38;18.05